Winside, NE

1:53 AM CST en Enero 30, 2015 (GMT -0600)
Sioux Gateway | Change Station
CLOSE
Current Station
Aeropuerto
Location: Sioux City,
Altura: 1102 ft
Estaciones meteorológicas cercanas

Alt 1102 ft 42.39 °N, 96.38 °W | Updated 1 hour ago

Despejado
Despejado
21 ° F
Sensación térmica 21 ° F
N
0
Viento Variable Viento desde Norte

Hoy
Alta -- | Baja -- ° F
--% Posibilidad de precipitaciones
Ayer
Alta -- | Baja -- ° F
Precip. -- pul
7:44 AM 5:40 PM
Gibosa creciente, 81% visible
Presión 30.61 pul
Visibilidad 10.0 Millas
Nubes Despejado
Punto de rocío 17 ° F
Humedad 85%
Precipitaciones 0.00 pul
Espesor de la nieve No disponible.
UV 0 de una escala de 12
Polen 1.80 de una escala de 12
Calidad del aire No disponible.
Flu Activity No disponible.
METAR KSUX 300652Z 00000KT 10SM CLR M06/M08 A3056 RMK AO2 SLP363 T10611083

More Conditions Fewer Conditions

Presión 30.61 pul
Visibilidad 10.0 Millas
Nubes Despejado
Punto de rocío 17 ° F
Humedad 85%
Precipitaciones 0.00 pul
Espesor de la nieve No disponible.
UV 0 de una escala de 12
Polen 1.80 de una escala de 12
Calidad del aire No disponible.
Flu Activity No disponible.
METAR KSUX 300652Z 00000KT 10SM CLR M06/M08 A3056 RMK AO2 SLP363 T10611083

More Conditions Fewer Conditions

10-Day Weather Forecast

Almanac

Astronomía

Jan. 30, 2015 Salida Puesta
Hora real
Crepúsculo civil
Crepúsculo náutico
Crepúsculo astronómico
Luna
Horas de luz
Horas de luz
Tomorrow will be .
, % of the Moon is Illuminated

Extremos de hoy

Máximos del estado Bajos del estado

Community

WunderPhotos

Upload Photos

1,791,726 ¡fotos cargadas!

WunderBlogs® & News

Nearby

Calidad del aire

  Calidad del aire Índice AQ Contaminante
Not available.

Grosos de nieve

Estación Profundido Altura

Actividad de terremotos

Ciudad Distance Mag. Tiempo y dato
Magnitud mínima muestra es 2,5.

Temperaturas de aguas costeras

Lugar Temperatura

Estaciones meteorológicas cercanas